Time;durP1;ratioP1;P1;durP2;ratioP2;P2;SDS_P1;SDS_P2;PMS_P1;PMS_P2;Temp;Humidity;BMP_temperature;BMP_pressure;BME280_temperature;BME280_humidity;BME280_pressure;Samples;Min_cycle;Max_cycle;Signal;HPM_P1;HPM_P2
2022/07/04 00:01:08;;;;;;;4.35;2.05;;;;;;;;;;10273336;28;20076;-64
2022/07/04 00:06:07;;;;;;;8.85;3.22;;;;;;;;;;10274892;28;20076;-63
2022/07/04 00:11:05;;;;;;;4.68;1.75;;;;;;;;;;10276938;28;20076;-65
2022/07/04 00:16:05;;;;;;;3.13;2.65;;;;;;;;;;10273104;28;20080;-64
2022/07/04 00:21:03;;;;;;;4.25;1.95;;;;;;;;;;10276824;28;20463;-64
2022/07/04 00:26:02;;;;;;;2.63;1.92;;;;;;;;;;10273659;28;20084;-64
2022/07/04 00:31:00;;;;;;;2.58;2.33;;;;;;;;;;10276264;28;20540;-65
2022/07/04 00:36:00;;;;;;;3.20;1.85;;;;;;;;;;10276833;28;20068;-64
2022/07/04 00:40:58;;;;;;;2.88;2.42;;;;;;;;;;10273558;28;20069;-64
2022/07/04 00:45:57;;;;;;;3.25;2.50;;;;;;;;;;10273800;28;20084;-64
2022/07/04 00:50:55;;;;;;;7.80;2.58;;;;;;;;;;10274587;28;20486;-65
2022/07/04 00:55:55;;;;;;;3.30;2.20;;;;;;;;;;10274972;28;20068;-65
2022/07/04 01:00:53;;;;;;;3.00;1.85;;;;;;;;;;10274255;28;20071;-65
2022/07/04 01:05:52;;;;;;;4.97;2.35;;;;;;;;;;10275709;28;20080;-64
2022/07/04 01:10:50;;;;;;;2.63;2.20;;;;;;;;;;10274064;28;20072;-64
2022/07/04 01:15:50;;;;;;;4.40;2.25;;;;;;;;;;10281445;28;20356;-65
2022/07/04 01:20:50;;;;;;;2.83;2.10;;;;;;;;;;10281484;28;20045;-65
2022/07/04 01:25:50;;;;;;;2.85;2.20;;;;;;;;;;10281362;28;20058;-65
2022/07/04 01:30:48;;;;;;;3.80;2.05;;;;;;;;;;10317916;28;20508;-65
2022/07/04 01:35:47;;;;;;;3.28;2.15;;;;;;;;;;10312006;28;20052;-65
2022/07/04 01:40:47;;;;;;;2.50;2.17;;;;;;;;;;10319709;28;20068;-70
2022/07/04 01:45:45;;;;;;;3.40;2.17;;;;;;;;;;10319447;28;20072;-69
2022/07/04 01:50:43;;;;;;;4.18;2.10;;;;;;;;;;10285078;28;20048;-69
2022/07/04 01:55:42;;;;;;;5.47;2.25;;;;;;;;;;10281246;28;20076;-69
2022/07/04 02:05:57;;;;;;;3.35;1.88;;;;;;;;;;10283927;28;20052;-68
2022/07/04 02:10:56;;;;;;;3.35;1.98;;;;;;;;;;10279924;28;20052;-69
2022/07/04 02:15:55;;;;;;;2.00;1.85;;;;;;;;;;10284477;28;20072;-69
2022/07/04 02:20:54;;;;;;;3.15;1.80;;;;;;;;;;10283770;28;20444;-70
2022/07/04 02:25:52;;;;;;;2.35;1.77;;;;;;;;;;10315903;28;20072;-68
2022/07/04 02:30:51;;;;;;;2.40;1.70;;;;;;;;;;10278500;28;20049;-69
2022/07/04 02:35:50;;;;;;;2.65;1.90;;;;;;;;;;10278983;28;20052;-68
2022/07/04 02:40:49;;;;;;;7.45;2.15;;;;;;;;;;10281650;28;20088;-68
2022/07/04 02:45:47;;;;;;;4.82;2.00;;;;;;;;;;10282028;28;20084;-69
2022/07/04 02:50:46;;;;;;;3.80;1.65;;;;;;;;;;10281723;28;20087;-68
2022/07/04 02:55:45;;;;;;;4.70;2.10;;;;;;;;;;10278803;28;20486;-69
2022/07/04 03:00:44;;;;;;;4.20;2.67;;;;;;;;;;10278815;28;20048;-68
2022/07/04 03:05:42;;;;;;;2.97;2.13;;;;;;;;;;10284288;28;20084;-68
2022/07/04 03:10:40;;;;;;;2.78;2.03;;;;;;;;;;10280345;28;20131;-69
2022/07/04 03:15:40;;;;;;;5.43;2.05;;;;;;;;;;10277105;28;20041;-68
2022/07/04 03:20:39;;;;;;;3.00;2.10;;;;;;;;;;10276990;28;20091;-68
2022/07/04 03:25:37;;;;;;;4.25;2.35;;;;;;;;;;10276502;28;20091;-68
2022/07/04 03:30:36;;;;;;;4.75;1.60;;;;;;;;;;10278215;28;20072;-68
2022/07/04 03:35:36;;;;;;;4.57;2.10;;;;;;;;;;10275672;28;20083;-69
2022/07/04 03:40:35;;;;;;;2.40;1.77;;;;;;;;;;10277090;28;20055;-69
2022/07/04 03:45:34;;;;;;;2.28;1.98;;;;;;;;;;10276356;28;20084;-69
2022/07/04 03:50:32;;;;;;;2.97;2.17;;;;;;;;;;10277009;28;20654;-69
2022/07/04 03:55:32;;;;;;;2.67;2.35;;;;;;;;;;10279551;28;20102;-69
2022/07/04 04:00:30;;;;;;;11.93;4.53;;;;;;;;;;10277025;28;20064;-69
2022/07/04 04:05:30;;;;;;;7.43;3.13;;;;;;;;;;10279136;28;20076;-69
2022/07/04 04:10:30;;;;;;;6.57;3.33;;;;;;;;;;10275374;28;20414;-69
2022/07/04 04:15:30;;;;;;;4.75;2.35;;;;;;;;;;10274508;28;20061;-69
2022/07/04 04:20:28;;;;;;;6.20;2.67;;;;;;;;;;10274312;28;20088;-68
2022/07/04 04:25:26;;;;;;;5.00;1.80;;;;;;;;;;10276360;28;20077;-67
2022/07/04 04:30:25;;;;;;;3.97;2.10;;;;;;;;;;10276407;28;20045;-69
2022/07/04 04:35:25;;;;;;;3.38;1.90;;;;;;;;;;10278855;28;20522;-68
2022/07/04 04:40:23;;;;;;;5.28;2.85;;;;;;;;;;10274544;28;20049;-68
2022/07/04 04:45:21;;;;;;;5.32;4.43;;;;;;;;;;10273428;28;20107;-69
2022/07/04 04:50:20;;;;;;;21.48;10.43;;;;;;;;;;10280708;28;20072;-69
2022/07/04 04:55:20;;;;;;;9.82;4.75;;;;;;;;;;10281996;28;20079;-69
2022/07/04 05:00:18;;;;;;;5.80;2.05;;;;;;;;;;10286486;28;20079;-69
2022/07/04 05:05:16;;;;;;;3.03;2.40;;;;;;;;;;10288965;28;20071;-69
2022/07/04 05:10:15;;;;;;;3.38;1.65;;;;;;;;;;10286397;28;20089;-69
2022/07/04 05:15:15;;;;;;;2.42;2.20;;;;;;;;;;10290764;28;20494;-69
2022/07/04 05:20:13;;;;;;;2.92;1.88;;;;;;;;;;10292685;28;20087;-69
2022/07/04 05:25:11;;;;;;;7.07;1.80;;;;;;;;;;10285027;28;20471;-69
2022/07/04 05:30:10;;;;;;;3.83;2.33;;;;;;;;;;10291180;28;20069;-70
2022/07/04 05:35:10;;;;;;;3.60;2.00;;;;;;;;;;10281152;28;20072;-70
2022/07/04 05:40:09;;;;;;;2.22;1.92;;;;;;;;;;10277825;28;20442;-68
2022/07/04 05:45:08;;;;;;;1.95;1.75;;;;;;;;;;10277770;28;20496;-69
2022/07/04 05:50:06;;;;;;;4.30;1.70;;;;;;;;;;10279563;28;20073;-69
2022/07/04 05:55:07;;;;;;;3.92;2.67;;;;;;;;;;10281050;28;20067;-69
2022/07/04 06:00:06;;;;;;;2.50;2.30;;;;;;;;;;10280135;28;20497;-69
2022/07/04 06:05:07;;;;;;;5.55;2.05;;;;;;;;;;10283990;28;20084;-69
2022/07/04 06:10:08;;;;;;;4.68;3.63;;;;;;;;;;10289036;28;20096;-69
2022/07/04 06:15:09;;;;;;;2.80;1.95;;;;;;;;;;10285314;28;20069;-69
2022/07/04 06:20:08;;;;;;;3.78;2.50;;;;;;;;;;10288786;28;20079;-68
2022/07/04 06:25:10;;;;;;;9.25;2.63;;;;;;;;;;10279797;28;20100;-69
2022/07/04 06:30:09;;;;;;;3.25;2.25;;;;;;;;;;10287056;28;20092;-69
2022/07/04 06:40:25;;;;;;;4.88;2.30;;;;;;;;;;10317518;28;20070;-69
2022/07/04 06:45:24;;;;;;;4.22;2.10;;;;;;;;;;10279630;28;20096;-69
2022/07/04 06:50:22;;;;;;;4.82;2.20;;;;;;;;;;10273788;28;20077;-68
2022/07/04 06:55:38;;;;;;;2.40;2.20;;;;;;;;;;10279326;28;20072;-70
2022/07/04 07:00:37;;;;;;;6.30;2.47;;;;;;;;;;10273552;28;20084;-67
2022/07/04 07:05:36;;;;;;;6.88;2.72;;;;;;;;;;10273052;28;20080;-70
2022/07/04 07:10:56;;;;;;;8.30;3.05;;;;;;;;;;10295640;28;20081;-69
2022/07/04 07:15:56;;;;;;;6.30;3.03;;;;;;;;;;10281268;28;20049;-69
2022/07/04 07:20:54;;;;;;;4.38;3.10;;;;;;;;;;10276773;28;20049;-69
2022/07/04 07:25:53;;;;;;;9.77;3.95;;;;;;;;;;10278544;28;20095;-69
2022/07/04 07:30:52;;;;;;;4.57;2.67;;;;;;;;;;10277250;28;20045;-69
2022/07/04 07:35:51;;;;;;;8.75;3.03;;;;;;;;;;10276441;28;20041;-68
2022/07/04 07:40:49;;;;;;;5.82;2.63;;;;;;;;;;10276191;28;20049;-69
2022/07/04 07:45:47;;;;;;;8.63;3.75;;;;;;;;;;10279076;28;20088;-68
2022/07/04 07:50:48;;;;;;;5.13;4.13;;;;;;;;;;10277731;28;20056;-69
2022/07/04 07:55:46;;;;;;;4.95;2.28;;;;;;;;;;10304839;28;20072;-69
2022/07/04 08:00:44;;;;;;;6.65;2.28;;;;;;;;;;10280739;28;20084;-68
2022/07/04 08:05:54;;;;;;;16.60;11.98;;;;;;;;;;10275339;28;20080;-68
2022/07/04 08:10:52;;;;;;;3.72;2.60;;;;;;;;;;10276054;28;20080;-68
2022/07/04 08:15:50;;;;;;;6.82;3.33;;;;;;;;;;10277111;28;20068;-68
2022/07/04 08:20:49;;;;;;;3.38;2.70;;;;;;;;;;10278621;28;20082;-69
2022/07/04 08:26:00;;;;;;;4.88;2.35;;;;;;;;;;10285545;28;20534;-68
2022/07/04 08:30:59;;;;;;;7.05;3.10;;;;;;;;;;10288558;28;20052;-69
2022/07/04 08:35:58;;;;;;;17.35;3.25;;;;;;;;;;10285165;28;20084;-70
2022/07/04 08:40:57;;;;;;;9.40;4.38;;;;;;;;;;10287818;28;20057;-70
2022/07/04 08:45:58;;;;;;;9.77;3.35;;;;;;;;;;10284738;28;20077;-70
2022/07/04 08:51:17;;;;;;;4.68;3.13;;;;;;;;;;10286137;28;20057;-69
2022/07/04 09:01:33;;;;;;;7.43;2.70;;;;;;;;;;10280734;28;20052;-69
2022/07/04 09:06:32;;;;;;;7.72;2.80;;;;;;;;;;10282093;28;20075;-70
2022/07/04 09:11:30;;;;;;;4.50;2.97;;;;;;;;;;10279947;28;20147;-69
2022/07/04 09:16:28;;;;;;;10.60;3.42;;;;;;;;;;10289565;28;20548;-69
2022/07/04 09:21:41;;;;;;;6.65;4.40;;;;;;;;;;10286592;28;20084;-69
2022/07/04 09:26:44;;;;;;;6.77;2.90;;;;;;;;;;10279462;28;20081;-68
2022/07/04 09:31:43;;;;;;;9.82;3.45;;;;;;;;;;10282412;28;20343;-68
2022/07/04 09:36:44;;;;;;;4.63;3.40;;;;;;;;;;10283078;28;20072;-69
2022/07/04 09:41:54;;;;;;;9.80;2.92;;;;;;;;;;10281476;28;20505;-69
2022/07/04 09:46:53;;;;;;;3.60;3.30;;;;;;;;;;10281790;28;20072;-70
2022/07/04 09:51:52;;;;;;;4.68;3.42;;;;;;;;;;10281526;28;20426;-69
2022/07/04 09:56:52;;;;;;;5.55;3.65;;;;;;;;;;10280495;28;20052;-68
2022/07/04 10:01:52;;;;;;;7.38;3.72;;;;;;;;;;10280398;28;20052;-69
2022/07/04 10:06:50;;;;;;;7.25;3.50;;;;;;;;;;10279938;28;20171;-69
2022/07/04 10:11:48;;;;;;;4.93;3.50;;;;;;;;;;10279405;28;20067;-68
2022/07/04 10:16:46;;;;;;;6.88;3.50;;;;;;;;;;10282332;28;20075;-69
2022/07/04 10:21:47;;;;;;;4.65;3.08;;;;;;;;;;10289118;28;20076;-68
2022/07/04 10:26:45;;;;;;;4.88;3.63;;;;;;;;;;10282628;28;20509;-68
2022/07/04 10:31:43;;;;;;;6.75;3.25;;;;;;;;;;10281655;28;20073;-69
2022/07/04 10:36:51;;;;;;;7.47;3.50;;;;;;;;;;10277742;28;20052;-69
2022/07/04 10:42:01;;;;;;;10.98;6.00;;;;;;;;;;10279706;28;20069;-69
2022/07/04 10:46:59;;;;;;;6.05;4.20;;;;;;;;;;10280475;28;20075;-69
2022/07/04 10:52:09;;;;;;;8.77;3.65;;;;;;;;;;10279909;28;20084;-68
2022/07/04 10:57:14;;;;;;;7.60;3.72;;;;;;;;;;10279383;28;20072;-69
2022/07/04 11:02:23;;;;;;;10.43;4.18;;;;;;;;;;10278029;28;20080;-69
2022/07/04 11:07:44;;;;;;;7.78;3.60;;;;;;;;;;10281044;28;20076;-69
2022/07/04 11:13:03;;;;;;;6.10;3.85;;;;;;;;;;10304776;28;20056;-68
2022/07/04 11:18:03;;;;;;;9.10;4.50;;;;;;;;;;10278875;28;20479;-69
2022/07/04 11:23:04;;;;;;;9.45;4.03;;;;;;;;;;10280729;28;20092;-69
2022/07/04 11:28:21;;;;;;;6.00;3.38;;;;;;;;;;10278551;28;20525;-70
2022/07/04 11:33:41;;;;;;;11.30;3.58;;;;;;;;;;10292484;28;20059;-68
2022/07/04 11:38:57;;;;;;;9.25;3.65;;;;;;;;;;10280578;28;20080;-68
2022/07/04 11:49:12;;;;;;;8.18;4.00;;;;;;;;;;10281177;28;20411;-68
2022/07/04 11:54:11;;;;;;;8.13;4.53;;;;;;;;;;10276841;28;20133;-68
2022/07/04 11:59:30;;;;;;;9.68;3.67;;;;;;;;;;10277301;28;20490;-69
2022/07/04 12:04:29;;;;;;;8.38;3.55;;;;;;;;;;10275175;28;20048;-69
2022/07/04 12:09:27;;;;;;;9.95;3.95;;;;;;;;;;10278487;28;20159;-70
2022/07/04 12:14:27;;;;;;;13.32;3.80;;;;;;;;;;10275273;28;20033;-70
2022/07/04 12:19:26;;;;;;;9.00;4.38;;;;;;;;;;10276327;28;20065;-69
2022/07/04 12:24:27;;;;;;;12.57;4.50;;;;;;;;;;10276096;28;20057;-70
2022/07/04 12:29:27;;;;;;;6.43;3.15;;;;;;;;;;10279930;28;20073;-69
2022/07/04 12:34:31;;;;;;;3.58;3.28;;;;;;;;;;10276581;28;20064;-69
2022/07/04 12:39:30;;;;;;;7.80;4.47;;;;;;;;;;10276384;28;20080;-70
2022/07/04 12:44:28;;;;;;;4.57;3.22;;;;;;;;;;10276230;28;20061;-71
2022/07/04 12:49:27;;;;;;;11.18;4.80;;;;;;;;;;10277805;28;20074;-69
2022/07/04 12:54:27;;;;;;;8.48;3.47;;;;;;;;;;10279705;28;20460;-70
2022/07/04 12:59:26;;;;;;;7.55;2.95;;;;;;;;;;10276801;28;20075;-69
2022/07/04 13:04:24;;;;;;;6.05;3.65;;;;;;;;;;10276600;28;20089;-70
2022/07/04 13:09:22;;;;;;;6.82;4.47;;;;;;;;;;10279833;28;20076;-70
2022/07/04 13:14:22;;;;;;;8.98;4.07;;;;;;;;;;10286381;28;20446;-69
2022/07/04 13:19:20;;;;;;;3.67;3.25;;;;;;;;;;10284560;28;20080;-69
2022/07/04 13:24:19;;;;;;;7.45;3.72;;;;;;;;;;10283373;28;20081;-69
2022/07/04 13:29:18;;;;;;;6.53;3.35;;;;;;;;;;10283555;28;20088;-69
2022/07/04 13:34:17;;;;;;;4.50;3.40;;;;;;;;;;10281307;28;20041;-70
2022/07/04 13:39:16;;;;;;;9.07;4.15;;;;;;;;;;10281886;28;20073;-70
2022/07/04 13:44:35;;;;;;;7.03;4.70;;;;;;;;;;10281109;28;20057;-70
2022/07/04 13:49:34;;;;;;;7.90;3.90;;;;;;;;;;10280880;28;20095;-69
2022/07/04 13:54:32;;;;;;;4.35;3.92;;;;;;;;;;10280796;28;20038;-69
2022/07/04 13:59:31;;;;;;;12.82;4.68;;;;;;;;;;10280877;28;20518;-69
2022/07/04 14:04:29;;;;;;;5.65;3.85;;;;;;;;;;10283024;28;20081;-68
2022/07/04 14:09:29;;;;;;;7.32;4.15;;;;;;;;;;10280932;28;20048;-70
2022/07/04 14:14:35;;;;;;;4.93;3.63;;;;;;;;;;10279593;28;20073;-69
2022/07/04 14:19:37;;;;;;;6.25;4.15;;;;;;;;;;10286442;28;20091;-72
2022/07/04 14:24:46;;;;;;;6.75;3.90;;;;;;;;;;10281214;28;20096;-70
2022/07/04 14:29:44;;;;;;;10.38;3.38;;;;;;;;;;10280057;28;20077;-69
2022/07/04 14:34:43;;;;;;;11.65;4.60;;;;;;;;;;10279452;28;20060;-69
2022/07/04 14:39:41;;;;;;;3.65;3.35;;;;;;;;;;10281565;28;20073;-69
2022/07/04 14:44:41;;;;;;;10.10;4.15;;;;;;;;;;10282493;28;20049;-68
2022/07/04 14:49:39;;;;;;;9.07;3.85;;;;;;;;;;10280037;28;20083;-70
2022/07/04 14:54:38;;;;;;;5.57;4.63;;;;;;;;;;10278893;28;20045;-69
2022/07/04 14:59:37;;;;;;;9.50;4.38;;;;;;;;;;10278646;28;20083;-65
2022/07/04 15:04:36;;;;;;;8.10;4.82;;;;;;;;;;10278504;28;20072;-68
2022/07/04 15:09:35;;;;;;;7.78;4.32;;;;;;;;;;10278023;28;20085;-68
2022/07/04 15:14:33;;;;;;;7.07;4.60;;;;;;;;;;10279285;28;20045;-67
2022/07/04 15:24:10;;;;;;;5.15;3.80;;;;;;;;;;10278808;28;20073;-66
2022/07/04 15:24:51;;;;;;;5.03;3.78;;;;;;;;;;10285305;28;20092;-69
2022/07/04 15:29:50;;;;;;;11.77;5.38;;;;;;;;;;10285847;28;20045;-68
2022/07/04 15:34:48;;;;;;;12.75;5.28;;;;;;;;;;10276203;28;20083;-69
2022/07/04 15:40:10;;;;;;;12.88;5.20;;;;;;;;;;10276937;28;20057;-69
2022/07/04 15:45:09;;;;;;;4.95;3.47;;;;;;;;;;10275776;28;20049;-69
2022/07/04 15:50:08;;;;;;;8.75;4.05;;;;;;;;;;10276924;28;20079;-69
2022/07/04 15:55:09;;;;;;;8.13;3.78;;;;;;;;;;10284867;28;20086;-69
2022/07/04 16:00:10;;;;;;;5.13;2.70;;;;;;;;;;10280020;28;20089;-68
2022/07/04 16:05:12;;;;;;;4.33;3.37;;;;;;;;;;10278400;28;20426;-69
2022/07/04 16:10:12;;;;;;;5.53;3.22;;;;;;;;;;10277857;28;20172;-68
2022/07/04 16:15:10;;;;;;;8.68;3.60;;;;;;;;;;10291042;28;20075;-68
2022/07/04 16:20:09;;;;;;;7.82;3.35;;;;;;;;;;10279260;28;20081;-68
2022/07/04 16:25:08;;;;;;;4.57;3.25;;;;;;;;;;10277173;28;20095;-69
2022/07/04 16:30:11;;;;;;;5.28;3.08;;;;;;;;;;10275907;28;20045;-69
2022/07/04 16:35:10;;;;;;;3.47;3.17;;;;;;;;;;10275895;28;20547;-69
2022/07/04 16:40:09;;;;;;;7.47;3.10;;;;;;;;;;10275527;28;20081;-69
2022/07/04 16:45:08;;;;;;;2.92;2.63;;;;;;;;;;10279484;28;20052;-69
2022/07/04 16:50:08;;;;;;;6.90;2.65;;;;;;;;;;10287053;28;20073;-69
2022/07/04 16:55:07;;;;;;;3.97;2.40;;;;;;;;;;10284238;28;20068;-69
2022/07/04 17:00:15;;;;;;;5.28;2.63;;;;;;;;;;10284184;28;20503;-66
2022/07/04 17:05:14;;;;;;;3.92;2.65;;;;;;;;;;10281927;28;20083;-65
2022/07/04 17:10:12;;;;;;;5.18;2.83;;;;;;;;;;10285656;28;20083;-66
2022/07/04 17:15:11;;;;;;;3.90;2.13;;;;;;;;;;10284658;28;20049;-66
2022/07/04 17:20:10;;;;;;;6.20;2.92;;;;;;;;;;10283448;28;20080;-66
2022/07/04 17:25:10;;;;;;;3.83;2.55;;;;;;;;;;10283760;28;20080;-66
2022/07/04 17:30:12;;;;;;;4.30;2.70;;;;;;;;;;10288930;28;20083;-65
2022/07/04 17:35:10;;;;;;;8.13;3.13;;;;;;;;;;10284756;28;20153;-67
2022/07/04 17:40:10;;;;;;;3.65;2.20;;;;;;;;;;10282571;28;20076;-66
2022/07/04 17:45:09;;;;;;;3.72;2.83;;;;;;;;;;10282694;28;20040;-65
2022/07/04 17:50:08;;;;;;;3.38;2.33;;;;;;;;;;10285632;28;20052;-66
2022/07/04 17:55:08;;;;;;;5.82;2.95;;;;;;;;;;10282457;28;20087;-66
2022/07/04 18:00:15;;;;;;;7.90;2.08;;;;;;;;;;10282082;28;20076;-66
2022/07/04 18:05:14;;;;;;;5.93;2.45;;;;;;;;;;10284804;28;20064;-66
2022/07/04 18:10:12;;;;;;;3.90;2.53;;;;;;;;;;10281902;28;20498;-66
2022/07/04 18:15:11;;;;;;;4.50;2.30;;;;;;;;;;10283833;28;20075;-67
2022/07/04 18:20:14;;;;;;;7.45;2.45;;;;;;;;;;10281154;28;20081;-66
2022/07/04 18:25:12;;;;;;;5.10;2.50;;;;;;;;;;10284328;28;20500;-65
2022/07/04 18:30:11;;;;;;;3.80;2.85;;;;;;;;;;10282791;28;20077;-65
2022/07/04 18:35:11;;;;;;;7.57;2.67;;;;;;;;;;10283319;28;20072;-66
2022/07/04 18:45:22;;;;;;;2.60;2.33;;;;;;;;;;10280656;28;20474;-66
2022/07/04 18:50:21;;;;;;;4.78;2.97;;;;;;;;;;10280239;28;20505;-66
2022/07/04 18:55:20;;;;;;;6.55;2.28;;;;;;;;;;10280579;28;20426;-65
2022/07/04 19:00:18;;;;;;;4.70;2.63;;;;;;;;;;10282857;28;20076;-65
2022/07/04 19:05:16;;;;;;;3.30;2.22;;;;;;;;;;10285341;28;20077;-65
2022/07/04 19:10:18;;;;;;;4.03;2.00;;;;;;;;;;10276382;28;20430;-65
2022/07/04 19:15:16;;;;;;;3.05;2.15;;;;;;;;;;10316230;28;20068;-65
2022/07/04 19:20:14;;;;;;;3.90;2.35;;;;;;;;;;10277386;28;20079;-66
2022/07/04 19:25:13;;;;;;;2.90;2.00;;;;;;;;;;10277067;28;20057;-65
2022/07/04 19:30:13;;;;;;;4.30;1.60;;;;;;;;;;10276507;28;20049;-65
2022/07/04 19:35:12;;;;;;;4.80;1.75;;;;;;;;;;10280126;28;20490;-65
2022/07/04 19:40:11;;;;;;;8.05;1.85;;;;;;;;;;10278618;28;20521;-64
2022/07/04 19:45:10;;;;;;;5.93;2.53;;;;;;;;;;10277896;28;20487;-65
2022/07/04 19:50:10;;;;;;;6.63;2.17;;;;;;;;;;10278921;28;20081;-65
2022/07/04 19:55:09;;;;;;;5.43;1.92;;;;;;;;;;10277803;28;20053;-65
2022/07/04 20:00:08;;;;;;;2.65;2.03;;;;;;;;;;10280574;28;20049;-66
2022/07/04 20:05:10;;;;;;;3.05;2.10;;;;;;;;;;10276258;28;20049;-65
2022/07/04 20:10:10;;;;;;;2.90;1.70;;;;;;;;;;10276191;28;20084;-66
2022/07/04 20:15:11;;;;;;;4.40;1.70;;;;;;;;;;10277007;28;20087;-64
2022/07/04 20:20:10;;;;;;;4.75;1.80;;;;;;;;;;10276989;28;20068;-66
2022/07/04 20:25:10;;;;;;;6.90;2.10;;;;;;;;;;10274522;28;20057;-65
2022/07/04 20:30:12;;;;;;;6.13;2.22;;;;;;;;;;10275843;28;20084;-66
2022/07/04 20:35:11;;;;;;;6.10;1.98;;;;;;;;;;10275605;28;20044;-66
2022/07/04 20:40:12;;;;;;;3.67;2.20;;;;;;;;;;10276789;28;20041;-65
2022/07/04 20:45:11;;;;;;;4.15;2.28;;;;;;;;;;10278684;28;20049;-65
2022/07/04 20:50:10;;;;;;;2.15;1.95;;;;;;;;;;10274533;28;20091;-64
2022/07/04 20:55:08;;;;;;;3.20;1.92;;;;;;;;;;10278393;28;20064;-65
2022/07/04 21:00:14;;;;;;;3.88;2.25;;;;;;;;;;10279022;28;20072;-64
2022/07/04 21:05:14;;;;;;;6.72;2.05;;;;;;;;;;10282773;28;20498;-65
2022/07/04 21:10:17;;;;;;;3.35;2.50;;;;;;;;;;10276364;28;20484;-65
2022/07/04 21:15:16;;;;;;;5.35;1.83;;;;;;;;;;10276147;28;20079;-65
2022/07/04 21:20:23;;;;;;;5.40;1.83;;;;;;;;;;10276145;28;20068;-65
2022/07/04 21:25:21;;;;;;;7.15;2.03;;;;;;;;;;10276583;28;20092;-65
2022/07/04 21:30:21;;;;;;;5.78;2.20;;;;;;;;;;10279364;28;20505;-65
2022/07/04 21:35:19;;;;;;;4.45;2.03;;;;;;;;;;10289586;28;20161;-65
2022/07/04 21:40:24;;;;;;;2.00;1.73;;;;;;;;;;10282912;28;20083;-65
2022/07/04 21:45:24;;;;;;;3.75;1.65;;;;;;;;;;10281483;28;20041;-65
2022/07/04 21:50:23;;;;;;;5.05;1.88;;;;;;;;;;10281408;28;20069;-64
2022/07/04 21:55:21;;;;;;;2.65;1.77;;;;;;;;;;10282486;28;20072;-65
2022/07/04 22:00:19;;;;;;;2.85;1.70;;;;;;;;;;10282010;28;20083;-65
2022/07/04 22:05:19;;;;;;;3.92;1.90;;;;;;;;;;10281110;28;20084;-65
2022/07/04 22:10:17;;;;;;;4.80;2.03;;;;;;;;;;10282228;28;20080;-65
2022/07/04 22:15:16;;;;;;;5.38;2.30;;;;;;;;;;10282025;28;20426;-66
2022/07/04 22:20:14;;;;;;;3.60;1.80;;;;;;;;;;10281522;28;20037;-65
2022/07/04 22:25:14;;;;;;;4.93;2.10;;;;;;;;;;10284832;28;20069;-64
2022/07/04 22:30:13;;;;;;;3.70;1.83;;;;;;;;;;10281001;28;20084;-64
2022/07/04 22:35:11;;;;;;;9.90;1.90;;;;;;;;;;10281244;28;20068;-64
2022/07/04 22:40:10;;;;;;;2.90;1.73;;;;;;;;;;10280256;28;20072;-65
2022/07/04 22:45:11;;;;;;;2.92;2.50;;;;;;;;;;10280130;28;20057;-65
2022/07/04 22:50:09;;;;;;;3.50;1.95;;;;;;;;;;10283380;28;20088;-64
2022/07/04 22:55:08;;;;;;;4.38;2.00;;;;;;;;;;10280316;28;20041;-65
2022/07/04 23:00:08;;;;;;;2.65;1.38;;;;;;;;;;10279741;28;20052;-64
2022/07/04 23:05:11;;;;;;;3.97;2.15;;;;;;;;;;10277682;28;20568;-64
2022/07/04 23:10:09;;;;;;;9.53;2.27;;;;;;;;;;10279810;28;20118;-65
2022/07/04 23:15:08;;;;;;;3.22;2.30;;;;;;;;;;10278046;28;20042;-65
2022/07/04 23:20:09;;;;;;;5.32;2.00;;;;;;;;;;10277781;28;20052;-64
2022/07/04 23:25:08;;;;;;;2.10;1.90;;;;;;;;;;10278260;28;20064;-64
2022/07/04 23:30:06;;;;;;;9.25;2.47;;;;;;;;;;10276383;28;20081;-64
2022/07/04 23:35:05;;;;;;;5.53;1.90;;;;;;;;;;10277279;28;20425;-65
2022/07/04 23:40:05;;;;;;;4.05;2.00;;;;;;;;;;10278589;28;20088;-65
2022/07/04 23:45:03;;;;;;;2.67;1.73;;;;;;;;;;10279463;28;20522;-64
2022/07/04 23:50:02;;;;;;;3.80;2.20;;;;;;;;;;10278188;28;20083;-65
2022/07/04 23:55:00;;;;;;;4.93;2.10;;;;;;;;;;10279649;28;20068;-64
